sensor_id;sensor_type;location;lat;lon;timestamp;temperature;humidity
44731;DHT22;30458;47.448;19.032;2022-07-09T00:09:56;20.80;80.00
44731;DHT22;30458;47.448;19.032;2022-07-09T00:20:00;20.70;80.20
44731;DHT22;30458;47.448;19.032;2022-07-09T00:30:06;20.60;80.20
44731;DHT22;30458;47.448;19.032;2022-07-09T00:40:08;20.50;80.40
44731;DHT22;30458;47.448;19.032;2022-07-09T00:50:09;20.50;80.40
44731;DHT22;30458;47.448;19.032;2022-07-09T01:00:10;20.50;80.20
44731;DHT22;30458;47.448;19.032;2022-07-09T01:10:12;20.50;80.00
44731;DHT22;30458;47.448;19.032;2022-07-09T01:20:13;20.10;80.60
44731;DHT22;30458;47.448;19.032;2022-07-09T01:30:27;20.10;81.00
44731;DHT22;30458;47.448;19.032;2022-07-09T01:40:28;20.10;80.70
44731;DHT22;30458;47.448;19.032;2022-07-09T01:50:29;20.10;80.40
44731;DHT22;30458;47.448;19.032;2022-07-09T02:00:30;20.20;80.00
44731;DHT22;30458;47.448;19.032;2022-07-09T02:10:31;19.80;81.40
44731;DHT22;30458;47.448;19.032;2022-07-09T02:20:31;19.60;82.30
44731;DHT22;30458;47.448;19.032;2022-07-09T02:30:33;19.50;82.70
44731;DHT22;30458;47.448;19.032;2022-07-09T02:40:35;19.50;82.50
44731;DHT22;30458;47.448;19.032;2022-07-09T02:50:36;19.50;82.60
44731;DHT22;30458;47.448;19.032;2022-07-09T03:00:38;19.70;82.20
44731;DHT22;30458;47.448;19.032;2022-07-09T03:10:41;19.90;81.50
44731;DHT22;30458;47.448;19.032;2022-07-09T03:20:42;19.80;81.50
44731;DHT22;30458;47.448;19.032;2022-07-09T03:30:43;19.80;82.00
44731;DHT22;30458;47.448;19.032;2022-07-09T03:40:46;20.10;81.60
44731;DHT22;30458;47.448;19.032;2022-07-09T03:50:51;20.40;80.10
44731;DHT22;30458;47.448;19.032;2022-07-09T04:00:52;20.40;80.60
44731;DHT22;30458;47.448;19.032;2022-07-09T04:10:56;20.50;79.70
44731;DHT22;30458;47.448;19.032;2022-07-09T04:20:59;20.90;79.40
44731;DHT22;30458;47.448;19.032;2022-07-09T04:31:00;20.80;79.50
44731;DHT22;30458;47.448;19.032;2022-07-09T04:41:01;21.40;78.00
44731;DHT22;30458;47.448;19.032;2022-07-09T04:51:02;21.40;77.00
44731;DHT22;30458;47.448;19.032;2022-07-09T05:01:05;21.30;77.80
44731;DHT22;30458;47.448;19.032;2022-07-09T05:11:06;21.30;78.60
44731;DHT22;30458;47.448;19.032;2022-07-09T05:21:07;22.50;76.30
44731;DHT22;30458;47.448;19.032;2022-07-09T05:31:10;23.10;74.10
44731;DHT22;30458;47.448;19.032;2022-07-09T05:41:14;24.20;72.00
44731;DHT22;30458;47.448;19.032;2022-07-09T05:51:20;25.00;69.30
44731;DHT22;30458;47.448;19.032;2022-07-09T06:01:25;25.90;67.90
44731;DHT22;30458;47.448;19.032;2022-07-09T06:11:28;26.40;67.60
44731;DHT22;30458;47.448;19.032;2022-07-09T06:21:31;27.10;65.90
44731;DHT22;30458;47.448;19.032;2022-07-09T06:31:34;27.60;64.00
44731;DHT22;30458;47.448;19.032;2022-07-09T06:41:35;28.50;62.90
44731;DHT22;30458;47.448;19.032;2022-07-09T06:51:36;28.90;62.00
44731;DHT22;30458;47.448;19.032;2022-07-09T07:01:42;29.20;62.10
44731;DHT22;30458;47.448;19.032;2022-07-09T07:11:44;28.80;62.00
44731;DHT22;30458;47.448;19.032;2022-07-09T07:21:46;29.10;61.70
44731;DHT22;30458;47.448;19.032;2022-07-09T07:31:47;28.80;61.70
44731;DHT22;30458;47.448;19.032;2022-07-09T07:41:48;28.60;62.80
44731;DHT22;30458;47.448;19.032;2022-07-09T07:51:49;28.60;62.40
44731;DHT22;30458;47.448;19.032;2022-07-09T08:01:50;28.50;62.90
44731;DHT22;30458;47.448;19.032;2022-07-09T08:11:50;28.20;62.50
44731;DHT22;30458;47.448;19.032;2022-07-09T08:21:51;27.30;64.80
44731;DHT22;30458;47.448;19.032;2022-07-09T08:31:56;27.70;63.40
44731;DHT22;30458;47.448;19.032;2022-07-09T08:42:00;28.20;62.80
44731;DHT22;30458;47.448;19.032;2022-07-09T08:52:04;28.40;62.20
44731;DHT22;30458;47.448;19.032;2022-07-09T09:02:06;28.00;62.70
44731;DHT22;30458;47.448;19.032;2022-07-09T09:12:11;28.00;62.70
44731;DHT22;30458;47.448;19.032;2022-07-09T09:22:16;27.70;60.20
44731;DHT22;30458;47.448;19.032;2022-07-09T09:32:20;26.70;62.20
44731;DHT22;30458;47.448;19.032;2022-07-09T09:42:24;26.70;64.00
44731;DHT22;30458;47.448;19.032;2022-07-09T09:52:26;26.50;62.80
44731;DHT22;30458;47.448;19.032;2022-07-09T10:02:29;26.30;62.40
44731;DHT22;30458;47.448;19.032;2022-07-09T10:12:33;26.30;62.40
44731;DHT22;30458;47.448;19.032;2022-07-09T10:22:38;26.00;61.40
44731;DHT22;30458;47.448;19.032;2022-07-09T10:32:40;26.00;61.00
44731;DHT22;30458;47.448;19.032;2022-07-09T10:42:57;25.90;61.70
44731;DHT22;30458;47.448;19.032;2022-07-09T10:52:58;25.80;61.10
44731;DHT22;30458;47.448;19.032;2022-07-09T11:03:06;26.00;61.30
44731;DHT22;30458;47.448;19.032;2022-07-09T11:13:08;25.80;61.40
44731;DHT22;30458;47.448;19.032;2022-07-09T11:23:14;25.70;60.30
44731;DHT22;30458;47.448;19.032;2022-07-09T11:33:15;25.70;59.70
44731;DHT22;30458;47.448;19.032;2022-07-09T11:43:19;25.70;60.00
44731;DHT22;30458;47.448;19.032;2022-07-09T11:53:24;25.90;59.40
44731;DHT22;30458;47.448;19.032;2022-07-09T12:03:31;25.90;58.00
44731;DHT22;30458;47.448;19.032;2022-07-09T12:13:37;26.10;58.40
44731;DHT22;30458;47.448;19.032;2022-07-09T12:23:37;26.10;58.00
44731;DHT22;30458;47.448;19.032;2022-07-09T12:33:40;26.30;58.80
44731;DHT22;30458;47.448;19.032;2022-07-09T12:43:41;26.30;56.90
44731;DHT22;30458;47.448;19.032;2022-07-09T12:53:45;26.40;58.10
44731;DHT22;30458;47.448;19.032;2022-07-09T13:03:48;26.40;59.00
44731;DHT22;30458;47.448;19.032;2022-07-09T13:13:49;26.40;59.60
44731;DHT22;30458;47.448;19.032;2022-07-09T13:23:52;26.50;57.60
44731;DHT22;30458;47.448;19.032;2022-07-09T13:33:56;26.40;59.30
44731;DHT22;30458;47.448;19.032;2022-07-09T13:43:56;26.30;59.40
44731;DHT22;30458;47.448;19.032;2022-07-09T13:54:00;26.30;58.80
44731;DHT22;30458;47.448;19.032;2022-07-09T14:04:03;26.10;59.10
44731;DHT22;30458;47.448;19.032;2022-07-09T14:14:04;26.10;58.10
44731;DHT22;30458;47.448;19.032;2022-07-09T14:24:05;26.20;59.10
44731;DHT22;30458;47.448;19.032;2022-07-09T14:34:08;26.30;59.30
44731;DHT22;30458;47.448;19.032;2022-07-09T14:44:11;26.30;58.40
44731;DHT22;30458;47.448;19.032;2022-07-09T14:54:16;26.30;58.20
44731;DHT22;30458;47.448;19.032;2022-07-09T15:04:18;26.30;57.40
44731;DHT22;30458;47.448;19.032;2022-07-09T15:14:19;26.10;57.30
44731;DHT22;30458;47.448;19.032;2022-07-09T15:24:20;26.20;56.70
44731;DHT22;30458;47.448;19.032;2022-07-09T15:34:23;26.20;56.10
44731;DHT22;30458;47.448;19.032;2022-07-09T15:44:23;26.20;56.10
44731;DHT22;30458;47.448;19.032;2022-07-09T15:54:24;26.10;55.50
44731;DHT22;30458;47.448;19.032;2022-07-09T16:04:27;26.10;55.60
44731;DHT22;30458;47.448;19.032;2022-07-09T16:14:31;26.10;54.90
44731;DHT22;30458;47.448;19.032;2022-07-09T16:24:32;26.10;54.60
44731;DHT22;30458;47.448;19.032;2022-07-09T16:34:32;26.00;54.40
44731;DHT22;30458;47.448;19.032;2022-07-09T16:44:36;25.90;54.60
44731;DHT22;30458;47.448;19.032;2022-07-09T16:54:39;25.80;54.40
44731;DHT22;30458;47.448;19.032;2022-07-09T17:04:42;25.70;54.90
44731;DHT22;30458;47.448;19.032;2022-07-09T17:14:43;25.50;55.70
44731;DHT22;30458;47.448;19.032;2022-07-09T17:24:46;25.40;56.00
44731;DHT22;30458;47.448;19.032;2022-07-09T17:34:47;25.30;55.90
44731;DHT22;30458;47.448;19.032;2022-07-09T17:44:50;25.20;55.90
44731;DHT22;30458;47.448;19.032;2022-07-09T17:54:52;25.10;55.80
44731;DHT22;30458;47.448;19.032;2022-07-09T18:04:52;25.00;55.70
44731;DHT22;30458;47.448;19.032;2022-07-09T18:14:56;24.90;56.10
44731;DHT22;30458;47.448;19.032;2022-07-09T18:24:59;24.70;56.80
44731;DHT22;30458;47.448;19.032;2022-07-09T18:35:05;24.40;57.20
44731;DHT22;30458;47.448;19.032;2022-07-09T18:45:06;24.30;57.60
44731;DHT22;30458;47.448;19.032;2022-07-09T18:55:11;24.10;58.10
44731;DHT22;30458;47.448;19.032;2022-07-09T19:05:14;23.90;58.90
44731;DHT22;30458;47.448;19.032;2022-07-09T19:15:15;23.70;59.60
44731;DHT22;30458;47.448;19.032;2022-07-09T19:25:15;23.80;60.80
44731;DHT22;30458;47.448;19.032;2022-07-09T19:35:16;23.70;60.80
44731;DHT22;30458;47.448;19.032;2022-07-09T19:45:19;23.60;60.70
44731;DHT22;30458;47.448;19.032;2022-07-09T19:55:25;23.00;61.00
44731;DHT22;30458;47.448;19.032;2022-07-09T20:05:26;22.80;61.40
44731;DHT22;30458;47.448;19.032;2022-07-09T20:15:29;22.60;62.40
44731;DHT22;30458;47.448;19.032;2022-07-09T20:25:30;22.70;62.60
44731;DHT22;30458;47.448;19.032;2022-07-09T20:35:33;22.80;62.80
44731;DHT22;30458;47.448;19.032;2022-07-09T20:45:35;22.90;62.00
44731;DHT22;30458;47.448;19.032;2022-07-09T20:55:43;22.90;62.10
44731;DHT22;30458;47.448;19.032;2022-07-09T21:05:46;23.00;63.00
44731;DHT22;30458;47.448;19.032;2022-07-09T21:15:50;23.00;63.90
44731;DHT22;30458;47.448;19.032;2022-07-09T21:25:55;22.90;64.10
44731;DHT22;30458;47.448;19.032;2022-07-09T21:35:59;22.90;64.10
44731;DHT22;30458;47.448;19.032;2022-07-09T21:46:01;22.90;64.40
44731;DHT22;30458;47.448;19.032;2022-07-09T21:56:02;23.00;65.30
44731;DHT22;30458;47.448;19.032;2022-07-09T22:06:05;23.00;65.20
44731;DHT22;30458;47.448;19.032;2022-07-09T22:16:09;22.90;66.20
44731;DHT22;30458;47.448;19.032;2022-07-09T22:26:10;22.90;66.90
44731;DHT22;30458;47.448;19.032;2022-07-09T22:36:11;22.90;67.70
44731;DHT22;30458;47.448;19.032;2022-07-09T22:46:17;22.90;67.60
44731;DHT22;30458;47.448;19.032;2022-07-09T22:56:22;22.90;67.50
44731;DHT22;30458;47.448;19.032;2022-07-09T23:06:25;22.80;67.60
44731;DHT22;30458;47.448;19.032;2022-07-09T23:16:26;22.80;68.10
44731;DHT22;30458;47.448;19.032;2022-07-09T23:26:30;22.70;68.20
44731;DHT22;30458;47.448;19.032;2022-07-09T23:36:31;22.80;68.80
44731;DHT22;30458;47.448;19.032;2022-07-09T23:46:34;22.70;70.10
44731;DHT22;30458;47.448;19.032;2022-07-09T23:56:36;22.80;70.70
